sensor_id;sensor_type;location;lat;lon;timestamp;P1;durP1;ratioP1;P2;durP2;ratioP2
72929;SDS011;61073;54.260;20.816;2023-10-19T09:27:09;11.10;;;4.03;;
72929;SDS011;61073;54.260;20.816;2023-10-19T11:06:02;10.75;;;5.03;;
72929;SDS011;61073;54.260;20.816;2023-10-19T11:08:29;13.77;;;6.07;;
72929;SDS011;61073;54.260;20.816;2023-10-19T11:23:19;6.22;;;3.58;;
72929;SDS011;61073;54.260;20.816;2023-10-19T11:28:17;11.18;;;5.63;;
72929;SDS011;61073;54.260;20.816;2023-10-19T11:35:44;9.38;;;4.15;;
72929;SDS011;61073;54.260;20.816;2023-10-19T11:40:38;5.72;;;3.33;;
72929;SDS011;61073;54.260;20.816;2023-10-19T12:12:39;7.30;;;4.25;;
72929;SDS011;61073;54.260;20.816;2023-10-19T12:15:10;16.40;;;8.02;;
72929;SDS011;61073;54.260;20.816;2023-10-19T12:17:39;23.13;;;8.63;;
72929;SDS011;61073;54.260;20.816;2023-10-19T12:20:06;33.45;;;12.30;;
72929;SDS011;61073;54.260;20.816;2023-10-19T12:22:33;18.27;;;8.95;;
72929;SDS011;61073;54.260;20.816;2023-10-19T12:25:05;26.67;;;11.70;;
72929;SDS011;61073;54.260;20.816;2023-10-19T12:57:04;28.17;;;11.38;;
72929;SDS011;61073;54.260;20.816;2023-10-19T12:59:36;37.55;;;14.38;;
72929;SDS011;61073;54.260;20.816;2023-10-19T13:02:03;70.30;;;33.08;;
72929;SDS011;61073;54.260;20.816;2023-10-19T13:04:31;62.97;;;26.83;;
72929;SDS011;61073;54.260;20.816;2023-10-19T13:06:58;36.55;;;14.80;;
72929;SDS011;61073;54.260;20.816;2023-10-19T13:24:33;8.30;;;3.80;;
72929;SDS011;61073;54.260;20.816;2023-10-19T13:34:32;9.85;;;5.40;;
72929;SDS011;61073;54.260;20.816;2023-10-19T13:39:26;11.77;;;6.63;;
72929;SDS011;61073;54.260;20.816;2023-10-19T13:41:54;10.68;;;5.25;;
72929;SDS011;61073;54.260;20.816;2023-10-19T13:44:21;7.78;;;4.68;;
72929;SDS011;61073;54.260;20.816;2023-10-19T13:46:49;10.38;;;6.25;;
72929;SDS011;61073;54.260;20.816;2023-10-19T13:49:21;7.80;;;5.17;;
72929;SDS011;61073;54.260;20.816;2023-10-19T13:51:48;10.82;;;5.68;;
72929;SDS011;61073;54.260;20.816;2023-10-19T13:54:15;13.50;;;7.10;;
72929;SDS011;61073;54.260;20.816;2023-10-19T13:56:42;9.20;;;6.40;;
72929;SDS011;61073;54.260;20.816;2023-10-19T13:59:09;16.67;;;9.50;;
72929;SDS011;61073;54.260;20.816;2023-10-19T14:01:37;30.38;;;16.30;;
72929;SDS011;61073;54.260;20.816;2023-10-19T14:04:04;18.42;;;10.88;;
72929;SDS011;61073;54.260;20.816;2023-10-19T14:06:31;14.18;;;8.32;;
72929;SDS011;61073;54.260;20.816;2023-10-19T14:08:58;15.83;;;8.37;;
72929;SDS011;61073;54.260;20.816;2023-10-19T14:11:25;20.23;;;9.60;;
72929;SDS011;61073;54.260;20.816;2023-10-19T14:13:52;17.55;;;8.10;;
72929;SDS011;61073;54.260;20.816;2023-10-19T14:16:20;17.45;;;8.43;;
72929;SDS011;61073;54.260;20.816;2023-10-19T14:23:45;16.65;;;7.25;;
72929;SDS011;61073;54.260;20.816;2023-10-19T14:26:12;23.92;;;9.93;;
72929;SDS011;61073;54.260;20.816;2023-10-19T14:28:40;21.42;;;10.23;;
72929;SDS011;61073;54.260;20.816;2023-10-19T14:31:07;11.77;;;6.53;;
72929;SDS011;61073;54.260;20.816;2023-10-19T14:33:34;24.70;;;10.88;;
72929;SDS011;61073;54.260;20.816;2023-10-19T14:36:02;16.35;;;8.10;;
72929;SDS011;61073;54.260;20.816;2023-10-19T14:38:31;20.17;;;10.10;;
72929;SDS011;61073;54.260;20.816;2023-10-19T14:40:58;12.57;;;6.63;;
72929;SDS011;61073;54.260;20.816;2023-10-19T14:43:27;18.00;;;8.40;;
72929;SDS011;61073;54.260;20.816;2023-10-19T14:45:58;16.10;;;9.13;;
72929;SDS011;61073;54.260;20.816;2023-10-19T14:48:27;17.13;;;8.68;;
72929;SDS011;61073;54.260;20.816;2023-10-19T14:50:57;15.35;;;7.47;;
72929;SDS011;61073;54.260;20.816;2023-10-19T14:53:25;20.87;;;9.30;;
72929;SDS011;61073;54.260;20.816;2023-10-19T14:55:52;15.27;;;7.90;;
72929;SDS011;61073;54.260;20.816;2023-10-19T14:58:19;12.20;;;5.65;;
72929;SDS011;61073;54.260;20.816;2023-10-19T15:00:46;20.15;;;8.00;;
72929;SDS011;61073;54.260;20.816;2023-10-19T15:03:20;17.03;;;7.63;;
72929;SDS011;61073;54.260;20.816;2023-10-19T15:05:50;27.23;;;12.30;;
72929;SDS011;61073;54.260;20.816;2023-10-19T15:08:21;34.50;;;18.33;;
72929;SDS011;61073;54.260;20.816;2023-10-19T15:10:52;28.17;;;13.80;;
72929;SDS011;61073;54.260;20.816;2023-10-19T15:13:20;20.67;;;9.85;;
72929;SDS011;61073;54.260;20.816;2023-10-19T15:15:48;32.40;;;16.73;;
72929;SDS011;61073;54.260;20.816;2023-10-19T15:18:15;46.20;;;20.08;;
72929;SDS011;61073;54.260;20.816;2023-10-19T15:20:42;26.85;;;12.80;;
72929;SDS011;61073;54.260;20.816;2023-10-19T15:23:09;25.63;;;11.98;;
72929;SDS011;61073;54.260;20.816;2023-10-19T15:25:36;15.27;;;7.68;;
72929;SDS011;61073;54.260;20.816;2023-10-19T15:28:06;13.95;;;6.68;;
72929;SDS011;61073;54.260;20.816;2023-10-19T15:30:34;24.33;;;11.35;;
72929;SDS011;61073;54.260;20.816;2023-10-19T15:33:02;24.27;;;11.80;;
72929;SDS011;61073;54.260;20.816;2023-10-19T15:35:29;17.65;;;8.35;;
72929;SDS011;61073;54.260;20.816;2023-10-19T15:37:56;16.70;;;8.32;;
72929;SDS011;61073;54.260;20.816;2023-10-19T15:40:24;21.00;;;9.82;;
72929;SDS011;61073;54.260;20.816;2023-10-19T15:42:51;19.47;;;9.03;;
72929;SDS011;61073;54.260;20.816;2023-10-19T15:45:24;23.00;;;10.82;;
72929;SDS011;61073;54.260;20.816;2023-10-19T15:47:52;12.53;;;6.57;;
72929;SDS011;61073;54.260;20.816;2023-10-19T15:50:21;23.75;;;12.50;;
72929;SDS011;61073;54.260;20.816;2023-10-19T15:52:48;40.33;;;19.97;;
72929;SDS011;61073;54.260;20.816;2023-10-19T15:55:16;98.97;;;47.25;;
72929;SDS011;61073;54.260;20.816;2023-10-19T15:57:45;94.50;;;48.08;;
72929;SDS011;61073;54.260;20.816;2023-10-19T16:00:12;25.85;;;14.20;;
72929;SDS011;61073;54.260;20.816;2023-10-19T16:02:41;30.48;;;17.50;;
72929;SDS011;61073;54.260;20.816;2023-10-19T16:05:08;41.83;;;23.58;;
72929;SDS011;61073;54.260;20.816;2023-10-19T16:07:37;50.70;;;29.35;;
72929;SDS011;61073;54.260;20.816;2023-10-19T16:10:04;20.42;;;9.35;;
72929;SDS011;61073;54.260;20.816;2023-10-19T16:12:31;114.80;;;50.03;;
72929;SDS011;61073;54.260;20.816;2023-10-19T16:14:58;174.98;;;62.83;;
72929;SDS011;61073;54.260;20.816;2023-10-19T16:17:26;92.00;;;34.83;;
72929;SDS011;61073;54.260;20.816;2023-10-19T16:19:53;214.88;;;68.90;;
72929;SDS011;61073;54.260;20.816;2023-10-19T16:22:20;121.85;;;40.22;;
72929;SDS011;61073;54.260;20.816;2023-10-19T16:24:47;115.43;;;40.28;;
72929;SDS011;61073;54.260;20.816;2023-10-19T16:27:14;119.25;;;44.75;;
72929;SDS011;61073;54.260;20.816;2023-10-19T16:29:42;179.95;;;65.03;;
72929;SDS011;61073;54.260;20.816;2023-10-19T16:32:09;39.78;;;22.13;;
72929;SDS011;61073;54.260;20.816;2023-10-19T16:34:36;41.33;;;22.17;;
72929;SDS011;61073;54.260;20.816;2023-10-19T16:37:03;36.17;;;19.25;;
72929;SDS011;61073;54.260;20.816;2023-10-19T16:39:31;43.25;;;23.55;;
72929;SDS011;61073;54.260;20.816;2023-10-19T16:41:58;19.40;;;10.52;;
72929;SDS011;61073;54.260;20.816;2023-10-19T16:44:27;18.63;;;8.63;;
72929;SDS011;61073;54.260;20.816;2023-10-19T16:46:55;25.23;;;12.23;;
72929;SDS011;61073;54.260;20.816;2023-10-19T16:49:22;24.60;;;12.95;;
72929;SDS011;61073;54.260;20.816;2023-10-19T16:51:50;23.00;;;10.60;;
72929;SDS011;61073;54.260;20.816;2023-10-19T16:54:17;22.27;;;11.05;;
72929;SDS011;61073;54.260;20.816;2023-10-19T16:56:44;21.75;;;9.15;;
72929;SDS011;61073;54.260;20.816;2023-10-19T16:59:14;25.75;;;12.32;;
72929;SDS011;61073;54.260;20.816;2023-10-19T17:01:42;18.55;;;9.25;;
72929;SDS011;61073;54.260;20.816;2023-10-19T17:04:10;28.83;;;13.50;;
72929;SDS011;61073;54.260;20.816;2023-10-19T17:06:37;20.42;;;9.15;;
72929;SDS011;61073;54.260;20.816;2023-10-19T17:09:09;21.17;;;10.43;;
72929;SDS011;61073;54.260;20.816;2023-10-19T17:11:38;17.33;;;8.70;;
72929;SDS011;61073;54.260;20.816;2023-10-19T17:14:05;21.40;;;11.03;;
72929;SDS011;61073;54.260;20.816;2023-10-19T17:16:35;20.65;;;9.82;;
72929;SDS011;61073;54.260;20.816;2023-10-19T17:19:02;24.05;;;10.63;;
72929;SDS011;61073;54.260;20.816;2023-10-19T17:21:30;18.13;;;8.20;;
72929;SDS011;61073;54.260;20.816;2023-10-19T17:23:57;24.20;;;11.07;;
72929;SDS011;61073;54.260;20.816;2023-10-19T17:26:25;30.45;;;13.25;;
72929;SDS011;61073;54.260;20.816;2023-10-19T17:28:52;33.47;;;17.90;;
72929;SDS011;61073;54.260;20.816;2023-10-19T17:31:23;15.05;;;6.90;;
72929;SDS011;61073;54.260;20.816;2023-10-19T17:33:51;20.40;;;9.80;;
72929;SDS011;61073;54.260;20.816;2023-10-19T17:36:19;21.73;;;10.52;;
72929;SDS011;61073;54.260;20.816;2023-10-19T17:38:46;27.30;;;13.90;;
72929;SDS011;61073;54.260;20.816;2023-10-19T17:41:13;38.60;;;18.57;;
72929;SDS011;61073;54.260;20.816;2023-10-19T17:43:41;32.00;;;15.52;;
72929;SDS011;61073;54.260;20.816;2023-10-19T17:46:09;40.90;;;17.95;;
72929;SDS011;61073;54.260;20.816;2023-10-19T17:48:36;57.22;;;23.05;;
72929;SDS011;61073;54.260;20.816;2023-10-19T17:51:09;52.13;;;20.23;;
72929;SDS011;61073;54.260;20.816;2023-10-19T17:53:37;43.40;;;17.63;;
72929;SDS011;61073;54.260;20.816;2023-10-19T17:56:05;38.03;;;16.27;;
72929;SDS011;61073;54.260;20.816;2023-10-19T17:58:33;30.63;;;13.25;;
72929;SDS011;61073;54.260;20.816;2023-10-19T18:01:01;36.50;;;17.35;;
72929;SDS011;61073;54.260;20.816;2023-10-19T18:03:32;24.02;;;10.80;;
72929;SDS011;61073;54.260;20.816;2023-10-19T18:06:01;56.57;;;25.43;;
72929;SDS011;61073;54.260;20.816;2023-10-19T18:08:28;13.27;;;7.30;;
72929;SDS011;61073;54.260;20.816;2023-10-19T18:10:55;19.05;;;10.48;;
72929;SDS011;61073;54.260;20.816;2023-10-19T18:13:23;19.17;;;10.43;;
72929;SDS011;61073;54.260;20.816;2023-10-19T18:15:50;20.33;;;9.95;;
72929;SDS011;61073;54.260;20.816;2023-10-19T18:18:18;21.52;;;9.50;;
72929;SDS011;61073;54.260;20.816;2023-10-19T18:20:45;22.45;;;10.52;;
72929;SDS011;61073;54.260;20.816;2023-10-19T18:23:13;23.10;;;10.02;;
72929;SDS011;61073;54.260;20.816;2023-10-19T18:25:41;31.83;;;14.37;;
72929;SDS011;61073;54.260;20.816;2023-10-19T18:28:09;38.42;;;19.38;;
72929;SDS011;61073;54.260;20.816;2023-10-19T18:30:36;23.52;;;10.80;;
72929;SDS011;61073;54.260;20.816;2023-10-19T18:33:03;17.67;;;8.85;;
72929;SDS011;61073;54.260;20.816;2023-10-19T18:35:32;17.23;;;8.55;;
72929;SDS011;61073;54.260;20.816;2023-10-19T18:38:01;16.17;;;8.30;;
72929;SDS011;61073;54.260;20.816;2023-10-19T18:40:28;20.75;;;9.35;;
72929;SDS011;61073;54.260;20.816;2023-10-19T18:42:59;12.65;;;6.47;;
72929;SDS011;61073;54.260;20.816;2023-10-19T18:45:26;16.77;;;9.50;;
72929;SDS011;61073;54.260;20.816;2023-10-19T18:47:54;19.00;;;10.80;;
72929;SDS011;61073;54.260;20.816;2023-10-19T18:50:21;16.20;;;8.27;;
72929;SDS011;61073;54.260;20.816;2023-10-19T18:52:58;15.90;;;8.43;;
72929;SDS011;61073;54.260;20.816;2023-10-19T18:55:25;20.63;;;10.60;;
72929;SDS011;61073;54.260;20.816;2023-10-19T18:57:53;19.70;;;9.60;;
72929;SDS011;61073;54.260;20.816;2023-10-19T19:00:23;20.45;;;10.80;;
72929;SDS011;61073;54.260;20.816;2023-10-19T19:02:50;28.60;;;14.00;;
72929;SDS011;61073;54.260;20.816;2023-10-19T19:05:18;23.08;;;11.32;;
72929;SDS011;61073;54.260;20.816;2023-10-19T19:07:45;20.35;;;10.90;;
72929;SDS011;61073;54.260;20.816;2023-10-19T19:10:12;27.33;;;13.15;;
72929;SDS011;61073;54.260;20.816;2023-10-19T19:12:40;22.13;;;10.48;;
72929;SDS011;61073;54.260;20.816;2023-10-19T19:27:31;17.23;;;6.85;;
72929;SDS011;61073;54.260;20.816;2023-10-19T19:32:26;16.65;;;7.28;;
72929;SDS011;61073;54.260;20.816;2023-10-19T19:34:53;12.23;;;6.13;;
72929;SDS011;61073;54.260;20.816;2023-10-19T19:37:21;19.98;;;9.25;;
72929;SDS011;61073;54.260;20.816;2023-10-19T19:52:09;17.05;;;6.95;;
72929;SDS011;61073;54.260;20.816;2023-10-19T20:31:28;15.07;;;5.35;;
72929;SDS011;61073;54.260;20.816;2023-10-19T20:33:55;11.90;;;5.97;;
72929;SDS011;61073;54.260;20.816;2023-10-19T20:36:22;16.15;;;6.72;;
72929;SDS011;61073;54.260;20.816;2023-10-19T20:38:49;14.05;;;6.95;;
72929;SDS011;61073;54.260;20.816;2023-10-19T20:41:18;11.67;;;5.80;;
72929;SDS011;61073;54.260;20.816;2023-10-19T20:43:46;14.73;;;6.88;;
72929;SDS011;61073;54.260;20.816;2023-10-19T20:46:13;11.20;;;5.72;;
72929;SDS011;61073;54.260;20.816;2023-10-19T20:48:40;9.98;;;5.38;;
72929;SDS011;61073;54.260;20.816;2023-10-19T20:53:50;17.50;;;8.77;;
72929;SDS011;61073;54.260;20.816;2023-10-19T20:56:17;7.75;;;4.75;;
72929;SDS011;61073;54.260;20.816;2023-10-19T21:06:14;7.60;;;3.85;;
72929;SDS011;61073;54.260;20.816;2023-10-19T21:11:17;13.52;;;4.43;;
72929;SDS011;61073;54.260;20.816;2023-10-19T21:13:46;8.02;;;4.20;;
72929;SDS011;61073;54.260;20.816;2023-10-19T21:18:40;6.78;;;3.17;;
72929;SDS011;61073;54.260;20.816;2023-10-19T21:28:29;8.65;;;2.60;;
72929;SDS011;61073;54.260;20.816;2023-10-19T21:35:51;9.63;;;3.47;;
72929;SDS011;61073;54.260;20.816;2023-10-19T21:43:13;10.35;;;5.03;;
72929;SDS011;61073;54.260;20.816;2023-10-19T21:50:36;6.68;;;3.60;;
72929;SDS011;61073;54.260;20.816;2023-10-19T21:53:05;7.07;;;3.40;;
72929;SDS011;61073;54.260;20.816;2023-10-19T21:55:33;10.98;;;4.80;;
72929;SDS011;61073;54.260;20.816;2023-10-19T21:58:01;9.10;;;4.93;;
72929;SDS011;61073;54.260;20.816;2023-10-19T22:00:28;9.82;;;5.13;;
72929;SDS011;61073;54.260;20.816;2023-10-19T22:02:56;7.88;;;4.53;;
72929;SDS011;61073;54.260;20.816;2023-10-19T22:05:35;9.18;;;4.85;;
72929;SDS011;61073;54.260;20.816;2023-10-19T22:08:03;8.00;;;4.40;;
72929;SDS011;61073;54.260;20.816;2023-10-19T22:10:31;8.57;;;4.05;;
72929;SDS011;61073;54.260;20.816;2023-10-19T22:57:15;8.57;;;3.67;;
72929;SDS011;61073;54.260;20.816;2023-10-19T22:59:42;8.48;;;4.85;;
72929;SDS011;61073;54.260;20.816;2023-10-19T23:02:08;7.65;;;4.18;;
72929;SDS011;61073;54.260;20.816;2023-10-19T23:04:36;7.25;;;4.38;;
72929;SDS011;61073;54.260;20.816;2023-10-19T23:07:06;7.15;;;4.15;;
72929;SDS011;61073;54.260;20.816;2023-10-19T23:09:36;7.30;;;4.30;;
72929;SDS011;61073;54.260;20.816;2023-10-19T23:12:03;6.63;;;4.10;;
72929;SDS011;61073;54.260;20.816;2023-10-19T23:14:35;6.22;;;3.90;;
72929;SDS011;61073;54.260;20.816;2023-10-19T23:17:02;6.82;;;4.10;;
72929;SDS011;61073;54.260;20.816;2023-10-19T23:19:35;6.43;;;4.03;;
72929;SDS011;61073;54.260;20.816;2023-10-19T23:22:06;7.95;;;4.78;;
72929;SDS011;61073;54.260;20.816;2023-10-19T23:24:33;7.15;;;4.18;;
72929;SDS011;61073;54.260;20.816;2023-10-19T23:27:00;7.20;;;4.25;;
72929;SDS011;61073;54.260;20.816;2023-10-19T23:29:28;6.65;;;4.00;;
72929;SDS011;61073;54.260;20.816;2023-10-19T23:31:57;6.90;;;4.18;;
72929;SDS011;61073;54.260;20.816;2023-10-19T23:34:25;6.90;;;4.10;;
72929;SDS011;61073;54.260;20.816;2023-10-19T23:36:52;7.40;;;3.92;;
72929;SDS011;61073;54.260;20.816;2023-10-19T23:39:19;6.63;;;3.88;;
72929;SDS011;61073;54.260;20.816;2023-10-19T23:41:55;8.47;;;4.50;;
72929;SDS011;61073;54.260;20.816;2023-10-19T23:44:23;7.60;;;4.25;;
72929;SDS011;61073;54.260;20.816;2023-10-19T23:46:56;7.22;;;3.80;;
72929;SDS011;61073;54.260;20.816;2023-10-19T23:49:24;5.32;;;3.92;;
72929;SDS011;61073;54.260;20.816;2023-10-19T23:51:52;5.70;;;4.05;;
72929;SDS011;61073;54.260;20.816;2023-10-19T23:54:19;7.90;;;4.18;;
72929;SDS011;61073;54.260;20.816;2023-10-19T23:56:46;6.88;;;4.25;;
72929;SDS011;61073;54.260;20.816;2023-10-19T23:59:14;7.80;;;4.28;;
